createdAt,value
2018-09-15T00:04:40.619Z,15.40
2018-09-15T00:09:43.884Z,15.40
2018-09-15T00:14:47.228Z,15.30
2018-09-15T00:19:50.688Z,15.30
2018-09-15T00:24:53.952Z,15.40
2018-09-15T00:29:57.237Z,15.40
2018-09-15T00:35:00.516Z,15.50
2018-09-15T00:40:03.796Z,15.60
2018-09-15T00:45:07.083Z,15.60
2018-09-15T00:50:10.375Z,15.70
2018-09-15T00:55:14.177Z,15.70
2018-09-15T01:00:18.614Z,15.80
2018-09-15T01:05:21.892Z,15.70
2018-09-15T01:10:25.470Z,15.70
2018-09-15T01:15:28.750Z,15.70
2018-09-15T01:20:32.133Z,15.80
2018-09-15T01:25:35.413Z,15.80
2018-09-15T01:30:38.720Z,15.80
2018-09-15T01:35:42.004Z,15.80
2018-09-15T01:40:45.266Z,15.90
2018-09-15T01:45:48.551Z,15.80
2018-09-15T01:50:51.846Z,15.80
2018-09-15T01:55:55.113Z,15.60
2018-09-15T02:00:58.400Z,15.70
2018-09-15T02:06:01.708Z,15.70
2018-09-15T02:11:05.009Z,15.70
2018-09-15T02:16:08.287Z,15.70
2018-09-15T02:21:11.606Z,15.80
2018-09-15T02:26:14.919Z,15.80
2018-09-15T02:31:18.219Z,15.80
2018-09-15T02:36:21.558Z,15.80
2018-09-15T02:41:24.811Z,15.70
2018-09-15T02:46:28.106Z,15.70
2018-09-15T02:51:32.548Z,15.60
2018-09-15T02:56:35.859Z,15.60
2018-09-15T03:01:39.152Z,15.70
2018-09-15T03:06:42.434Z,15.20
2018-09-15T03:11:45.712Z,15.30
2018-09-15T03:16:48.996Z,15.40
2018-09-15T03:21:52.383Z,15.40
2018-09-15T03:26:55.662Z,15.50
2018-09-15T03:31:58.931Z,15.50
2018-09-15T03:37:02.257Z,15.50
2018-09-15T03:42:05.561Z,15.50
2018-09-15T03:47:08.899Z,15.50
2018-09-15T03:52:12.180Z,15.50
2018-09-15T03:57:15.485Z,15.60
2018-09-15T04:02:18.771Z,15.50
2018-09-15T04:07:22.065Z,15.50
2018-09-15T04:12:25.373Z,15.60
2018-09-15T04:17:28.642Z,15.60
2018-09-15T04:22:31.958Z,15.60
2018-09-15T04:27:35.346Z,15.60
2018-09-15T04:32:38.622Z,15.60
2018-09-15T04:37:42.025Z,15.50
2018-09-15T04:47:48.563Z,15.40
2018-09-15T04:52:52.076Z,15.40
2018-09-15T04:57:55.354Z,15.40
2018-09-15T05:08:01.864Z,15.40
2018-09-15T05:13:05.159Z,15.40
2018-09-15T05:18:08.442Z,15.20
2018-09-15T05:23:11.732Z,15.20
2018-09-15T05:28:14.991Z,15.10
2018-09-15T05:33:18.607Z,15.10
2018-09-15T05:38:22.259Z,15.10
2018-09-15T05:43:25.546Z,15.10
2018-09-15T05:48:31.458Z,15.10
2018-09-15T05:53:37.101Z,15.20
2018-09-15T05:58:43.879Z,15.30
2018-09-15T06:03:49.487Z,15.30
2018-09-15T06:08:52.848Z,15.20
2018-09-15T06:13:56.223Z,15.30
2018-09-15T06:18:59.500Z,15.30
2018-09-15T06:24:02.810Z,15.30
2018-09-15T06:29:06.097Z,15.40
2018-09-15T06:34:09.371Z,15.40
2018-09-15T06:39:12.701Z,15.60
2018-09-15T06:44:15.932Z,15.70
2018-09-15T06:49:19.234Z,15.90
2018-09-15T06:54:22.882Z,16.10
2018-09-15T06:59:29.356Z,16.40
2018-09-15T07:04:35.652Z,16.50
2018-09-15T07:19:49.362Z,17.10
2018-09-15T07:30:06.193Z,18.30
2018-09-15T07:35:15.958Z,18.20
2018-09-15T07:40:24.201Z,18.10
2018-09-15T07:45:36.499Z,18.10
2018-09-15T07:50:41.185Z,17.90
2018-09-15T07:55:45.027Z,17.90
2018-09-15T08:00:50.343Z,17.90
2018-09-15T08:05:57.557Z,18.40
2018-09-15T08:11:08.954Z,19.10
2018-09-15T08:16:16.863Z,19.00
2018-09-15T08:21:24.932Z,18.80
2018-09-15T08:26:38.103Z,18.90
2018-09-15T08:31:43.505Z,18.90
2018-09-15T08:36:49.457Z,19.30
2018-09-15T08:41:57.282Z,19.30
2018-09-15T08:47:04.689Z,19.90
2018-09-15T08:52:14.720Z,20.90
2018-09-15T08:57:28.044Z,21.10
2018-09-15T09:02:37.648Z,20.20
2018-09-15T09:07:44.338Z,19.70
2018-09-15T09:12:50.302Z,20.20
2018-09-15T09:17:56.768Z,20.70
2018-09-15T09:23:00.557Z,20.80
2018-09-15T09:28:07.339Z,21.00
2018-09-15T09:33:15.312Z,21.20
2018-09-15T09:38:19.649Z,21.00
2018-09-15T09:43:24.512Z,20.60
2018-09-15T09:48:31.770Z,20.90
2018-09-15T09:53:38.005Z,21.70
2018-09-15T09:58:44.336Z,21.60
2018-09-15T10:03:50.359Z,21.60
2018-09-15T10:08:57.001Z,21.60
2018-09-15T10:14:02.180Z,20.80
2018-09-15T10:19:09.351Z,22.40
2018-09-15T10:24:14.428Z,22.30
2018-09-15T10:29:21.272Z,22.60
2018-09-15T10:34:29.766Z,23.80
2018-09-15T10:39:37.769Z,23.20
2018-09-15T10:44:44.033Z,23.60
2018-09-15T10:49:47.482Z,22.10
2018-09-15T10:54:51.709Z,21.30
2018-09-15T10:59:55.528Z,21.60
2018-09-15T11:04:58.994Z,22.00
2018-09-15T11:10:02.438Z,22.30
2018-09-15T11:15:05.782Z,23.10
2018-09-15T11:20:12.450Z,23.30
2018-09-15T11:25:15.827Z,22.20
2018-09-15T11:30:19.089Z,22.70
2018-09-15T11:35:22.377Z,22.70
2018-09-15T11:40:25.619Z,21.60
2018-09-15T11:45:28.886Z,21.60
2018-09-15T11:50:32.151Z,23.10
2018-09-15T11:55:35.422Z,22.90
2018-09-15T12:00:42.742Z,22.70
2018-09-15T12:05:45.991Z,22.90
2018-09-15T12:10:49.238Z,22.50
2018-09-15T12:15:52.544Z,22.20
2018-09-15T12:20:55.806Z,23.80
2018-09-15T12:25:59.100Z,23.60
2018-09-15T12:31:02.355Z,24.10
2018-09-15T12:36:05.754Z,25.50
2018-09-15T12:41:09.025Z,26.20
2018-09-15T12:46:12.307Z,27.80
2018-09-15T12:51:15.577Z,26.80
2018-09-15T12:56:18.847Z,26.90
2018-09-15T13:01:22.111Z,25.00
2018-09-15T13:06:25.465Z,25.20
2018-09-15T13:11:28.710Z,25.40
2018-09-15T13:16:32.028Z,26.00
2018-09-15T13:21:36.125Z,24.90
2018-09-15T13:26:39.398Z,25.10
2018-09-15T13:31:42.740Z,25.10
2018-09-15T13:36:46.039Z,24.60
2018-09-15T13:41:49.319Z,25.80
2018-09-15T13:46:52.653Z,23.90
2018-09-15T13:51:56.072Z,23.90
2018-09-15T13:56:59.608Z,24.90
2018-09-15T14:02:03.074Z,24.90
2018-09-15T14:07:06.456Z,24.90
2018-09-15T14:22:15.828Z,25.30
2018-09-15T14:27:20.806Z,26.70
2018-09-15T14:32:25.422Z,27.10
2018-09-15T14:37:29.396Z,28.00
2018-09-15T14:42:32.669Z,27.10
2018-09-15T14:47:35.948Z,27.90
2018-09-15T14:52:39.774Z,28.60
2018-09-15T14:57:43.045Z,28.50
2018-09-15T15:02:50.823Z,26.70
2018-09-15T15:07:54.349Z,26.20
2018-09-15T15:12:57.601Z,26.00
2018-09-15T15:18:00.879Z,25.90
2018-09-15T15:23:04.160Z,26.80
2018-09-15T15:33:20.336Z,26.60
2018-09-15T15:38:24.356Z,27.10
2018-09-15T15:43:28.676Z,27.20
2018-09-15T15:48:32.157Z,26.80
2018-09-15T15:53:35.446Z,27.40
2018-09-15T15:58:39.185Z,26.80
2018-09-15T16:03:43.392Z,27.50
2018-09-15T16:08:47.094Z,27.60
2018-09-15T16:13:51.279Z,27.30
2018-09-15T16:18:56.385Z,27.20
2018-09-15T16:23:59.762Z,26.50
2018-09-15T16:29:03.339Z,24.20
2018-09-15T16:34:08.349Z,22.50
2018-09-15T16:39:14.325Z,22.40
2018-09-15T16:44:19.283Z,22.00
2018-09-15T16:49:22.908Z,22.00
2018-09-15T16:59:29.773Z,22.10
2018-09-15T17:04:33.648Z,22.10
2018-09-15T17:09:37.059Z,20.90
2018-09-15T17:14:40.881Z,20.60
2018-09-15T17:19:44.631Z,20.10
2018-09-15T17:34:57.105Z,19.50
2018-09-15T17:40:02.208Z,19.10
2018-09-15T17:45:05.617Z,18.60
2018-09-15T17:50:09.350Z,18.10
2018-09-15T17:55:12.643Z,18.20
2018-09-15T18:00:15.944Z,18.00
2018-09-15T18:05:19.306Z,17.90
2018-09-15T18:10:22.604Z,17.60
2018-09-15T18:15:25.877Z,17.40
2018-09-15T18:20:29.148Z,17.40
2018-09-15T18:25:32.401Z,17.10
2018-09-15T18:30:35.683Z,16.70
2018-09-15T18:35:38.992Z,16.90
2018-09-15T18:40:42.253Z,17.10
2018-09-15T18:45:45.510Z,17.10
2018-09-15T18:50:48.863Z,17.10
2018-09-15T18:55:52.080Z,16.90
2018-09-15T19:00:55.346Z,16.70
2018-09-15T19:16:11.242Z,15.90
2018-09-15T19:21:16.609Z,15.70
2018-09-15T19:46:41.170Z,15.30
2018-09-15T19:51:46.577Z,15.10
2018-09-15T19:56:51.868Z,14.90
2018-09-15T20:12:04.743Z,15.30
2018-09-15T20:27:17.157Z,15.30
2018-09-15T20:32:23.070Z,15.30
2018-09-15T20:37:28.441Z,15.20
2018-09-15T20:42:31.844Z,14.90
2018-09-15T20:52:39.699Z,14.90
2018-09-15T20:57:42.969Z,14.90
2018-09-15T21:07:49.279Z,14.70
2018-09-15T21:12:52.605Z,14.70
2018-09-15T21:17:55.892Z,14.70
2018-09-15T21:22:59.154Z,14.60
2018-09-15T21:28:02.439Z,14.40
2018-09-15T21:38:08.825Z,14.00
2018-09-15T21:48:15.937Z,13.90
2018-09-15T21:58:22.376Z,13.90
2018-09-15T22:08:28.670Z,13.60
2018-09-15T22:18:35.029Z,13.40
2018-09-15T22:23:44.823Z,13.50
2018-09-15T22:28:48.099Z,13.30
2018-09-15T22:33:51.492Z,13.20
2018-09-15T22:38:54.754Z,13.40
2018-09-15T22:49:01.115Z,13.30
2018-09-15T22:54:04.380Z,13.10
2018-09-15T22:59:07.648Z,13.10
2018-09-15T23:04:12.895Z,13.00
2018-09-15T23:09:16.183Z,13.00
2018-09-15T23:14:19.451Z,12.70
2018-09-15T23:19:22.729Z,12.50
2018-09-15T23:24:26.003Z,12.40
2018-09-15T23:29:29.267Z,12.50
2018-09-15T23:34:32.577Z,12.50
2018-09-15T23:39:35.851Z,12.40
2018-09-15T23:44:39.227Z,12.40
2018-09-15T23:49:42.500Z,12.50
2018-09-15T23:59:48.778Z,12.40
